Home > Products > Valid Products > MTR

000
SAUS44 KMAF 291957
MTRGDP
METAR KGDP 291951Z AUTO 08017G20KT 10SM BKN095 28/07 A3014 RMK AO2
SLP113 T02830067





000
SAUS44 KMAF 291954
MTR6R6
METAR K6R6 291953Z AUTO 36/17 A2988 RMK AO1 SLP074 T03610167





000
SAUS44 KMAF 291857
MTRGDP
METAR KGDP 291851Z AUTO VRB03KT 9SM SCT090 29/06 A3016 RMK AO2
SLP114 T02940061





000
SAUS44 KMAF 291854
MTR6R6
METAR K6R6 291853Z AUTO VRB06KT 35/18 A2991 RMK AO1 SLP084 T03500183





000
SAUS44 KMAF 291757
MTRGDP
METAR KGDP 291751Z AUTO 23008KT 9SM FEW090 29/07 A3016 RMK AO2
SLP120 T02890072 10306 20200 50003





000
SAUS44 KMAF 291754
MTR6R6
METAR K6R6 291753Z AUTO 10008KT 33/19 A2993 RMK AO1 SLP092 T03330194
10333 20256 58003





000
SAUS44 KMAF 291657
MTRGDP
METAR KGDP 291651Z AUTO 25009KT 9SM FEW090 28/08 A3017 RMK AO2
SLP121 T02780078





000
SAUS44 KMAF 291654
MTR6R6
METAR K6R6 291653Z AUTO 12009KT 31/21 A2994 RMK AO1 SLP098 T03110206





000
SAUS44 KMAF 291557
MTRGDP
METAR KGDP 291551Z AUTO 22008KT 9SM CLR 25/07 A3017 RMK AO2 SLP124
T02500067





000
SAUS44 KMAF 291554
MTR6R6
METAR K6R6 291553Z AUTO 10007KT 29/21 A2995 RMK AO1 SLP103 T02890206





000
SAUS44 KMAF 291457
MTRGDP
METAR KGDP 291451Z AUTO 21005KT 9SM FEW095 23/06 A3016 RMK AO2
SLP123 T02280056 51012





000
SAUS44 KMAF 291454
MTR6R6
METAR K6R6 291453Z AUTO 13008KT 27/21 A2994 RMK AO1 SLP098 T02720206
51013





000
SAUS44 KMAF 291359 COR
MTR6R6
METAR K6R6 291353Z AUTO 11012KT 27/20 A2993 RMK AO1 SLP097 T02670200





000
SAUS44 KMAF 291357
MTRGDP
METAR KGDP 291351Z AUTO 00000KT 9SM CLR 21/06 A3015 RMK AO2 SLP125
T02060056





000
SAUS44 KMAF 291354
MTR6R6
METAR K6R6 291353Z AUTO 11012KT 27/20 A2993 RMK AO1 SLP097 T02670200





000
SAUS44 KMAF 291257
MTRGDP
METAR KGDP 291251Z AUTO 02008KT 9SM FEW095 22/05 A3013 RMK AO2
SLP114 T02170050





000
SAUS44 KMAF 291254
MTR6R6
METAR K6R6 291253Z AUTO 10006KT 26/19 A2991 RMK AO1 SLP087 T02610189





000
SAUS44 KMAF 291157
MTRGDP
METAR KGDP 291151Z AUTO 04012KT 10SM CLR 22/04 A3011 RMK AO2 SLP100
T02220044 10244 20211 55000





000
SAUS44 KMAF 291154
MTR6R6
METAR K6R6 291153Z AUTO 10007KT 26/18 A2990 RMK AO1 SLP081 T02610183
10294 20261 53008





000
SAUS44 KMAF 291057
MTRGDP
METAR KGDP 291051Z AUTO 04009KT 10SM CLR 22/04 A3010 RMK AO2 SLP095
T02170044





000
SAUS44 KMAF 291054
MTR6R6
METAR K6R6 291053Z AUTO 10007KT 27/19 A2989 RMK AO1 SLP076 T02720194





000
SAUS44 KMAF 290957
MTRGDP
METAR KGDP 290951Z AUTO 03008KT 10SM CLR 23/04 A3011 RMK AO2 SLP096
T02280039





000
SAUS44 KMAF 290954
MTR6R6
METAR K6R6 290953Z AUTO 11010KT 28/19 A2987 RMK AO1 SLP072 T02780194





000
SAUS44 KMAF 290857
MTRGDP
METAR KGDP 290851Z AUTO 36006KT 10SM CLR 23/04 A3011 RMK AO2 SLP096
T02330039 56004





000
SAUS44 KMAF 290854
MTR6R6
METAR K6R6 290853Z AUTO 11006KT 28/18 A2987 RMK AO1 SLP069 T02830183
58006





000
SAUS44 KMAF 290757
MTRGDP
METAR KGDP 290751Z AUTO 03010KT 10SM CLR 23/04 A3012 RMK AO2 SLP097
T02330039





000
SAUS44 KMAF 290754
MTR6R6
METAR K6R6 290753Z AUTO 13006KT 29/15 A2988 RMK AO1 SLP072 T02890150





000
SAUS44 KMAF 290657
MTRGDP
METAR KGDP 290651Z AUTO 02008KT 10SM CLR 24/03 A3012 RMK AO2 SLP099
T02440033 403330189





000
SAUS44 KMAF 290654
MTR6R6
METAR K6R6 290653Z AUTO 06004KT 28/15 A2988 RMK AO1 SLP075 T02830150





000
SAUS44 KMAF 290557
MTRGDP
METAR KGDP 290551Z AUTO 09005KT 10SM CLR 23/03 A3013 RMK AO2 SLP108
T02330033 10306 20233 50005





000
SAUS44 KMAF 290554
MTR6R6
METAR K6R6 290553Z AUTO 09004KT 28/16 A2989 RMK AO1 SLP078 T02830156
10367 20278 403940250 50004





000
SAUS44 KMAF 290457
MTRGDP
METAR KGDP 290451Z AUTO 00000KT 10SM CLR 26/03 A3013 RMK AO2 SLP110
T02560033





000
SAUS44 KMAF 290454
MTR6R6
METAR K6R6 290453Z AUTO 00000KT 28/17 A2989 RMK AO1 SLP080 T02830167





000
SAUS44 KMAF 290357
MTRGDP
METAR KGDP 290351Z AUTO 28014G23KT 10SM CLR 26/03 A3013 RMK AO2 PK
WND 29029/0305 SLP112 T02560033





000
SAUS44 KMAF 290354
MTR6R6
METAR K6R6 290353Z AUTO 28004KT 28/17 A2988 RMK AO1 SLP078 T02830167





000
SAUS44 KMAF 290257
MTRGDP
METAR KGDP 290251Z AUTO 28018G26KT 10SM CLR 26/04 A3011 RMK AO2 PK
WND 28030/0201 SLP111 T02610039 53006





000
SAUS44 KMAF 290254
MTR6R6
METAR K6R6 290253Z AUTO 30004KT 29/18 A2988 RMK AO1 SLP076 T02890178
50010





000
SAUS44 KMAF 290157
MTRGDP
METAR KGDP 290151Z AUTO 28019G24KT 10SM CLR 27/03 A3010 RMK AO2
SLP107 T02670028





000
SAUS44 KMAF 290155
MTR6R6
METAR K6R6 290153Z AUTO 26006KT 29/18 A2988 RMK AO1 WSHFT 0055
SLP078 T02940183





000
SAUS44 KMAF 290116
MTR6R6
SPECI K6R6 290115Z AUTO 24012KT 31/18 A2988 RMK AO1 WSHFT 0055
T03060183





000
SAUS44 KMAF 290105
MTR6R6
SPECI K6R6 290104Z AUTO 24019G23KT 32/18 A2987 RMK AO1 WSHFT 0044
PRESRR T03170183





000
SAUS44 KMAF 290057
MTRGDP
METAR KGDP 290051Z AUTO 28019G26KT 10SM CLR 28/04 A3009 RMK AO2 PK
WND 25028/0025 SLP099 T02830039





000
SAUS44 KMAF 290054
MTR6R6
METAR K6R6 290053Z AUTO 19014KT 36/14 A2986 RMK AO1 SLP067 T03610144





000
SAUS44 KMAF 290005 COR
MTRGDP
METAR KGDP 282351Z AUTO 28018G26KT 10SM CLR 31/05 A3009 RMK AO2 PK
WND 28027/2317 SLP097 T03060050 10333 20289 56012





000
SAUS44 KMAF 282359 COR
MTRGDP
METAR KGDP 282351Z AUTO 28018G26KT 10SM CLR 31/05 A3009 RMK AO2 PK
WND 28027/2317 SLP097 T03060050 10333 20289 56012





000
SAUS44 KMAF 282358 COR
MTRGDP
METAR KGDP 282351Z AUTO 28018G26KT 10SM CLR 31/05 A3009 RMK AO2 PK
WND 28027/2317 SLP097 T03060050 10333 20289 56012





000
SAUS44 KMAF 282357
MTRGDP
METAR KGDP 282351Z AUTO 28018G26KT 10SM CLR 31/05 A3009 RMK AO2 PK
WND 28027/2317 SLP097 T03060050 10333 20289 56012





000
SAUS44 KMAF 282354
MTR6R6
METAR K6R6 282353Z AUTO 13007KT 37/14 A2985 RMK AO1 SLP064 T03670139
10394 20350 56011





000
SAUS44 KMAF 282257
MTRGDP
METAR KGDP 282251Z AUTO 25016G25KT 10SM SCT085 32/07 A3010 RMK AO2
PK WND 26028/2218 SLP098 T03220067





000
SAUS44 KMAF 282254
MTR6R6
METAR K6R6 282253Z AUTO 16009KT 38/14 A2985 RMK AO1 SLP063 T03780144





000
SAUS44 KMAF 282157
MTRGDP
METAR KGDP 282151Z AUTO 26013G22KT 10SM FEW075 32/09 A3011 RMK AO2
SLP102 T03220094





000
SAUS44 KMAF 282154
MTR6R6
METAR K6R6 282153Z AUTO 13008KT 38/14 A2986 RMK AO1 SLP065 T03780144





000
SAUS44 KMAF 282057
MTRGDP
METAR KGDP 282051Z AUTO 23012G25KT 10SM CLR 33/09 A3013 RMK AO2 PK
WND 26027/2022 SLP104 T03280094 58020





000
SAUS44 KMAF 282054
MTR6R6
METAR K6R6 282053Z AUTO 12009KT 38/14 A2988 RMK AO1 SLP073 T03780144
58026





000
SAUS44 KMAF 281957
MTRGDP
METAR KGDP 281951Z AUTO 25015G21KT 10SM CLR 33/10 A3016 RMK AO2
SLP115 T03280100





000
SAUS44 KMAF 281954
MTR6R6
METAR K6R6 281953Z AUTO 08007KT 030V110 38/15 A2991 RMK AO1 SLP083
T03830150





000
SAUS44 KMAF 281857
MTRGDP
METAR KGDP 281851Z AUTO 24014G24KT 10SM CLR 32/11 A3018 RMK AO2
SLP122 T03170106





000
SAUS44 KMAF 281854
MTR6R6
METAR K6R6 281853Z AUTO VRB03KT 36/16 A2994 RMK AO1 SLP093 T03560156





000
SAUS44 KMAF 281757
MTRGDP
METAR KGDP 281751Z AUTO 25014G21KT 10SM CLR 29/13 A3020 RMK AO2
SLP135 T02890128 10300 20194 58006





000
SAUS44 KMAF 281754
MTR6R6
METAR K6R6 281753Z AUTO VRB03KT 35/16 A2996 RMK AO1 SLP101 T03500161
10350 20250 58015





000
SAUS44 KMAF 281657
MTRGDP
METAR KGDP 281651Z AUTO 24010G19KT 10SM CLR 26/15 A3022 RMK AO2
SLP145 T02610150





000
SAUS44 KMAF 281654
MTR6R6
METAR K6R6 281653Z AUTO 18003KT 33/17 A2999 RMK AO1 SLP110 T03280167





000
SAUS44 KMAF 281557
MTRGDP
METAR KGDP 281551Z AUTO 23010KT 9SM CLR 24/15 A3022 RMK AO2 SLP150
T02440150





000
SAUS44 KMAF 281554
MTR6R6
METAR K6R6 281553Z AUTO 12005KT 31/17 A3000 RMK AO1 SLP116 T03110172





000
SAUS44 KMAF 281457
MTRGDP
METAR KGDP 281451Z AUTO 24006KT 9SM CLR 22/15 A3022 RMK AO2 SLP153
T02170150 51008





000
SAUS44 KMAF 281454
MTR6R6
METAR K6R6 281453Z AUTO 11007KT 29/17 A3001 RMK AO1 SLP119 T02940172
51011





000
SAUS44 KMAF 281357
MTRGDP
METAR KGDP 281351Z AUTO 25003KT 9SM FEW110 21/14 A3021 RMK AO2
SLP152 T02060144





000
SAUS44 KMAF 281354
MTR6R6
METAR K6R6 281353Z AUTO 08007KT 28/18 A3000 RMK AO1 SLP116 T02780178





000
SAUS44 KMAF 281257
MTRGDP
METAR KGDP 281251Z AUTO 00000KT 9SM BKN110 22/14 A3021 RMK AO2
SLP143 T02170139





000
SAUS44 KMAF 281254
MTR6R6
METAR K6R6 281253Z AUTO 01005KT 26/16 A2999 RMK AO1 SLP115 T02560161





000
SAUS44 KMAF 281157
MTRGDP
METAR KGDP 281151Z AUTO VRB03KT 10SM OVC120 20/14 A3019 RMK AO2
SLP138 T02000144 10228 20189 56001





000
SAUS44 KMAF 281154
MTR6R6
METAR K6R6 281153Z AUTO 04003KT 26/16 A2997 RMK AO1 SLP107 T02560156
10311 20256 53000





000
SAUS44 KMAF 281057
MTRGDP
METAR KGDP 281051Z AUTO 20005KT 10SM OVC110 19/14 A3019 RMK AO2
SLP140 T01940144





000
SAUS44 KMAF 281054
MTR6R6
METAR K6R6 281053Z AUTO 09009KT 28/16 A2996 RMK AO1 SLP102 T02780156





000
SAUS44 KMAF 280957
MTRGDP
METAR KGDP 280951Z AUTO 23009KT 10SM OVC110 20/14 A3018 RMK AO2
SLP135 T02000139





000
SAUS44 KMAF 280954
MTR6R6
METAR K6R6 280953Z AUTO 08005KT 27/16 A2996 RMK AO1 SLP103 T02720156





000
SAUS44 KMAF 280857
MTRGDP
METAR KGDP 280851Z AUTO 26014KT 10SM OVC100 23/13 A3020 RMK AO2
SLP137 T02280133 56013





000
SAUS44 KMAF 280855
MTR6R6
METAR K6R6 280853Z AUTO 10006KT 29/16 A2997 RMK AO1 SLP105 T02890156
58010





000
SAUS44 KMAF 280756
MTRGDP
METAR KGDP 280751Z AUTO 24010KT 10SM OVC100 22/13 A3021 RMK AO2
SLP144 T02170128





000
SAUS44 KMAF 280754
MTR6R6
METAR K6R6 280753Z AUTO 12006KT 29/16 A2998 RMK AO1 SLP109 T02940156





000
SAUS44 KMAF 280657
MTRGDP
METAR KGDP 280651Z AUTO 25010KT 10SM OVC110 22/13 A3022 RMK AO2
SLP147 T02220128 402940172





000
SAUS44 KMAF 280654
MTR6R6
METAR K6R6 280653Z AUTO 13010KT 31/16 A3000 RMK AO1 SLP113 T03060156





000
SAUS44 KMAF 280557
MTRGDP
METAR KGDP 280551Z AUTO 27011KT 10SM CLR 22/12 A3024 RMK AO2 SLP152
T02220122 10289 20217 58006





000
SAUS44 KMAF 280554
MTR6R6
METAR K6R6 280553Z AUTO 12008KT 31/15 A3000 RMK AO1 SLP116 T03110150
10378 20306 403940244 51004





000
SAUS44 KMAF 280457
MTRGDP
METAR KGDP 280451Z AUTO 25009KT 10SM CLR 22/13 A3025 RMK AO2 SLP159
T02220133





000
SAUS44 KMAF 280454
MTR6R6
METAR K6R6 280453Z AUTO 12008KT 32/15 A3000 RMK AO1 SLP117 T03170150





000
SAUS44 KMAF 280357
MTRGDP
METAR KGDP 280351Z AUTO 26011KT 10SM CLR 22/14 A3026 RMK AO2 SLP167
T02170139





000
SAUS44 KMAF 280354
MTR6R6
METAR K6R6 280353Z AUTO 11006KT 33/16 A3001 RMK AO1 SLP117 T03280156





000
SAUS44 KMAF 280257
MTRGDP
METAR KGDP 280251Z AUTO 23009KT 10SM CLR 23/13 A3026 RMK AO2 SLP168
T02330133 51011





000
SAUS44 KMAF 280254
MTR6R6
METAR K6R6 280253Z AUTO 12007KT 34/16 A2999 RMK AO1 SLP112 T03390156
53013





000
SAUS44 KMAF 280157
MTRGDP
METAR KGDP 280151Z AUTO 24009KT 10SM CLR 24/13 A3025 RMK AO2 SLP164
T02390133





000
SAUS44 KMAF 280154
MTR6R6
METAR K6R6 280153Z AUTO 12009KT 35/14 A2997 RMK AO1 SLP105 T03500139





000
SAUS44 KMAF 280057
MTRGDP
METAR KGDP 280051Z AUTO 23012KT 9SM CLR 26/13 A3024 RMK AO2 SLP162
T02560128





000
SAUS44 KMAF 280054
MTR6R6
METAR K6R6 280053Z AUTO 12009KT 36/13 A2996 RMK AO1 SLP102 T03610133





000
SAUS44 KMAF 272357
MTRGDP
METAR KGDP 272351Z AUTO 23010G17KT 9SM CLR 27/12 A3022 RMK AO2
SLP151 60000 T02720122 10294 20244 56014





000
SAUS44 KMAF 272354
MTR6R6
METAR K6R6 272353Z AUTO 12006KT 38/13 A2995 RMK AO1 SLP099 T03780133
10394 20350 56015





000
SAUS44 KMAF 272257
MTRGDP
METAR KGDP 272251Z AUTO 9SM BKN110 27/13 A3023 RMK AO2 SLP157
T02720128





000
SAUS44 KMAF 272254
MTR6R6
METAR K6R6 272253Z AUTO 10009KT 38/14 A2995 RMK AO1 SLP099 T03780139





000
SAUS44 KMAF 272156
MTRGDP
METAR KGDP 272151Z AUTO 23006KT 9SM BKN110 28/13 A3025 RMK AO2
RAE2052 SLP160 P0000 T02780128





000
SAUS44 KMAF 272154
MTR6R6
METAR K6R6 272153Z AUTO 07009G17KT 38/13 A2997 RMK AO1 SLP105
T03830133





000
SAUS44 KMAF 272058 COR
MTRGDP
METAR KGDP 272051Z AUTO 28003KT 10SM -RA FEW075 OVC100 26/12 A3027
RMK AO2 RAB1959E09B42 SLP171 P0000 60000 T02560122 58012





000
SAUS44 KMAF 272057 COR
MTRGDP
METAR KGDP 272051Z AUTO 28003KT 10SM -RA FEW075 OVC100 26/12 A3027
RMK AO2 RAB1959E09B42 SLP171 P0000 60000 T02560122 58012





000
SAUS44 KMAF 272057
MTRGDP
METAR KGDP 272051Z AUTO 28003KT 10SM -RA FEW075 OVC100 26/12 A3027
RMK AO2 RAB1959E09B42 SLP171 P0000 60000 T02560122 58012





000
SAUS44 KMAF 272054
MTR6R6
METAR K6R6 272053Z AUTO 13008G19KT 39/13 A3000 RMK AO1 SLP113
T03890133 58022





000
SAUS44 KMAF 271957
MTRGDP
METAR KGDP 271951Z AUTO 24007KT 9SM FEW080 BKN095 OVC120 26/15 A3029
RMK AO2 SLP174 T02610150





000
SAUS44 KMAF 271954
MTR6R6
METAR K6R6 271953Z AUTO VRB06KT 37/14 A3003 RMK AO1 SLP124 T03720144





000
SAUS44 KMAF 271857
MTRGDP
METAR KGDP 271851Z AUTO 26009KT 9SM SCT120 26/16 A3031 RMK AO2
SLP182 T02610156





000
SAUS44 KMAF 271854
MTR6R6
METAR K6R6 271853Z AUTO 09007KT 060V130 37/14 A3005 RMK AO1 SLP133
T03720144





000
SAUS44 KMAF 271757
MTRGDP
METAR KGDP 271751Z AUTO 24010KT 9SM FEW040 OVC110 26/14 A3031 RMK
AO2 SLP178 T02610144 10272 20172 50006





000
SAUS44 KMAF 271754
MTR6R6
METAR K6R6 271753Z AUTO 08004KT 36/16 A3007 RMK AO1 SLP138 T03560161
10356 20244 58004





000
SAUS44 KMAF 271657
MTRGDP
METAR KGDP 271651Z AUTO 9SM OVC110 24/13 A3032 RMK AO2 SLP184
T02390133





000
SAUS44 KMAF 271654
MTR6R6
METAR K6R6 271653Z AUTO VRB04KT 34/17 A3009 RMK AO1 SLP146 T03390172





000
SAUS44 KMAF 271556
MTRGDP
METAR KGDP 271551Z AUTO 00000KT 9SM SCT080 BKN110 23/13 A3032 RMK
AO2 SLP183 T02330133





000
SAUS44 KMAF 271554
MTR6R6
METAR K6R6 271553Z AUTO 12005KT 32/18 A3009 RMK AO1 SLP146 T03170183





000
SAUS44 KMAF 271456
MTRGDP
METAR KGDP 271451Z AUTO 05017KT 9SM OVC110 21/14 A3029 RMK AO2
SLP179 T02110139 51010





000
SAUS44 KMAF 271454
MTR6R6
METAR K6R6 271453Z AUTO 12007KT 30/19 A3008 RMK AO1 SLP145 T03000189
51013





000
SAUS44 KMAF 271356
MTRGDP
METAR KGDP 271351Z AUTO 03008KT 9SM OVC100 21/13 A3029 RMK AO2
SLP181 T02110133





000
SAUS44 KMAF 271354
MTR6R6
METAR K6R6 271353Z AUTO 11006KT 28/19 A3008 RMK AO1 SLP144 T02830189





000
SAUS44 KMAF 271257
MTRGDP
METAR KGDP 271251Z AUTO 20009KT 8SM FEW080 17/16 A3027 RMK AO2
SLP184 T01720156





000
SAUS44 KMAF 271254
MTR6R6
METAR K6R6 271253Z AUTO 01003KT 26/18 A3006 RMK AO1 SLP137 T02560183





000
SAUS44 KMAF 271158 COR
MTRGDP
METAR KGDP 271151Z AUTO 28008KT 10SM FEW080 19/14 A3025 RMK AO2
SLP173 60000 70003 T01940139 10228 20172 55004





000
SAUS44 KMAF 271157 COR
MTRGDP
METAR KGDP 271151Z AUTO 28008KT 10SM FEW080 19/14 A3025 RMK AO2
SLP173 60000 70003 T01940139 10228 20172 55004





000
SAUS44 KMAF 271156
MTRGDP
METAR KGDP 271151Z AUTO 28008KT 10SM FEW080 19/14 A3025 RMK AO2
SLP173 60000 70003 T01940139 10228 20172 55004





000
SAUS44 KMAF 271154
MTR6R6
METAR K6R6 271153Z AUTO 03004KT 25/17 A3004 RMK AO1 SLP130 T02500172
10283 20250 53002





000
SAUS44 KMAF 271056
MTRGDP
METAR KGDP 271051Z AUTO 23007KT 10SM SCT120 18/14 A3025 RMK AO2
SLP172 T01830144





000
SAUS44 KMAF 271054
MTR6R6
METAR K6R6 271053Z AUTO 10007KT 26/17 A3002 RMK AO1 SLP123 T02610172





000
SAUS44 KMAF 270956
MTRGDP
METAR KGDP 270951Z AUTO 22010KT 10SM BKN110 18/15 A3025 RMK AO2
SLP171 T01830150





000
SAUS44 KMAF 270956
MTRGDP
METAR KGDP 270951Z AUTO 22010KT 10SM BKN110 18/15 A3025 RMK AO2
SLP171 T01830150





000
SAUS44 KMAF 270954
MTR6R6
METAR K6R6 270953Z AUTO 09004KT 27/16 A3003 RMK AO1 SLP125 T02670161





000
SAUS44 KMAF 270954
MTR6R6
METAR K6R6 270953Z AUTO 09004KT 27/16 A3003 RMK AO1 SLP125 T02670161





000
SAUS44 KMAF 270856
MTRGDP
METAR KGDP 270851Z AUTO 25007KT 10SM BKN110 19/15 A3027 RMK AO2 PK
WND 25029/0801 SLP167 60000 T01890150 58005





000
SAUS44 KMAF 270854
MTR6R6
METAR K6R6 270853Z AUTO 13004KT 28/15 A3003 RMK AO1 SLP126 T02780150
53001





000
SAUS44 KMAF 270756
MTRGDP
METAR KGDP 270751Z AUTO 20005KT 10SM SCT085 OVC110 21/14 A3027 RMK
AO2 RAE0653 SLP159 P0000 T02110139





000
SAUS44 KMAF 270754
MTR6R6
METAR K6R6 270753Z AUTO 05005KT 27/13 A3003 RMK AO1 SLP124 T02670128





000
SAUS44 KMAF 270718
MTRGDP
SPECI KGDP 270713Z AUTO 20008KT 3SM BR SCT001 OVC080 17/17 A3028 RMK
AO2 RAE0653 P0000 T01720167





000
SAUS44 KMAF 270717
MTRGDP
SPECI KGDP 270711Z AUTO 19008KT 1 1/4SM BR SCT001 OVC080 17/17 A3028
RMK AO2 RAE0653 P0000 T01720172





000
SAUS44 KMAF 270713
MTRGDP
SPECI KGDP 270708Z AUTO 18009KT 1/2SM FG BKN001 BKN080 OVC095 17/17
A3028 RMK AO2 RAE0653 P0000 T01720172





000
SAUS44 KMAF 270707
MTRGDP
SPECI KGDP 270702Z AUTO 18009G20KT 1/4SM FG BKN002 BKN080 OVC100
18/17 A3028 RMK AO2 RAE0653 P0000 T01780172





000
SAUS44 KMAF 270702 COR
MTRGDP
SPECI KGDP 270655Z AUTO 20016G20KT 3/4SM BR FEW002 BKN075 OVC100
18/17 A3028 RMK AO2 RAE53 P0000 T01830167





000
SAUS44 KMAF 270701 COR
MTRGDP
SPECI KGDP 270655Z AUTO 20016G20KT 3/4SM BR FEW002 BKN075 OVC100
18/17 A3028 RMK AO2 RAE53 P0000 T01830167





000
SAUS44 KMAF 270700
MTRGDP
SPECI KGDP 270655Z AUTO 20016G20KT 3/4SM BR FEW002 BKN075 OVC100
18/17 A3028 RMK AO2 RAE53 P0000 T01830167





000
SAUS44 KMAF 270656
MTRGDP
METAR KGDP 270651Z AUTO 19008G15KT 150V230 9SM -RA FEW002 SCT080
OVC100 19/16 A3029 RMK AO2 WSHFT 0629 RAB40 SLP169 P0000 T01940156
403110194





000
SAUS44 KMAF 270654
MTR6R6
METAR K6R6 270653Z AUTO 01003KT 27/13 A3003 RMK AO1 SLP125 T02670128





000
SAUS44 KMAF 270654
MTRGDP
SPECI KGDP 270649Z AUTO 20010G15KT 10SM -RA FEW002 BKN100 OVC120
21/14 A3029 RMK AO2 WSHFT 0629 RAB40 P0000





000
SAUS44 KMAF 270557
MTRGDP
METAR KGDP 270551Z AUTO 06010KT 10SM BKN110 23/12 A3027 RMK AO2
RAB09E23 SLP157 P0000 60001 T02280117 10244 20200 50004





000
SAUS44 KMAF 270554
MTR6R6
METAR K6R6 270553Z AUTO 08004KT 28/12 A3003 RMK AO1 SLP125 T02830122
10378 20283 403890244 51010





000
SAUS44 KMAF 270456
MTRGDP
METAR KGDP 270451Z AUTO 06005KT 10SM OVC110 24/11 A3027 RMK AO2
SLP159 T02390106





000
SAUS44 KMAF 270454
MTR6R6
METAR K6R6 270453Z AUTO 08003KT 29/12 A3003 RMK AO1 SLP124 T02890117





000
SAUS44 KMAF 270357
MTRGDP
METAR KGDP 270351Z AUTO 02004KT 10SM SCT080 24/11 A3026 RMK AO2
SLP156 T02390106





000
SAUS44 KMAF 270354
MTR6R6
METAR K6R6 270353Z AUTO 10004KT 30/12 A3001 RMK AO1 SLP121 T03000117





000
SAUS44 KMAF 270257
MTRGDP
METAR KGDP 270251Z AUTO 01006KT 10SM FEW070 FEW120 23/12 A3025 RMK
AO2 SLP163 60001 T02280122 53008





000
SAUS44 KMAF 270254
MTR6R6
METAR K6R6 270253Z AUTO 11005KT 32/12 A3000 RMK AO1 SLP115 T03220117
53013





000
SAUS44 KMAF 270157
MTRGDP
METAR KGDP 270151Z AUTO 04012KT 10SM BKN095 BKN120 22/15 A3023 RMK
AO2 RAE0059 SLP161 P0000 T02170150





000
SAUS44 KMAF 270154
MTR6R6
METAR K6R6 270153Z AUTO 11008KT 34/12 A2999 RMK AO1 SLP112 T03390117





000
SAUS44 KMAF 270057
MTRGDP
METAR KGDP 270051Z AUTO 06008KT 8SM -RA OVC100 22/16 A3024 RMK AO2
RAB2357 SLP165 P0001 T02170156





000
SAUS44 KMAF 270054
MTR6R6
METAR K6R6 270053Z AUTO 12011KT 36/10 A2996 RMK AO1 SLP104 T03610100





000
SAUS44 KMAF 262358 COR
MTRGDP
METAR KGDP 262351Z AUTO 03014KT 9SM OVC100 22/16 A3022 RMK AO2 RAE42
SLP160 P0002 60002 T02170161 10311 20206 50003





000
SAUS44 KMAF 262357 COR
MTRGDP
METAR KGDP 262351Z AUTO 03014KT 9SM OVC100 22/16 A3022 RMK AO2 RAE42
SLP160 P0002 60002 T02170161 10311 20206 50003





000
SAUS44 KMAF 262356
MTRGDP
METAR KGDP 262351Z AUTO 03014KT 9SM OVC100 22/16 A3022 RMK AO2 RAE42
SLP160 P0002 60002 T02170161 10311 20206 50003





000
SAUS44 KMAF 262354
MTR6R6
METAR K6R6 262353Z AUTO 14012KT 38/08 A2996 RMK AO1 SLP101 T03780078
10389 20356 56010





000
SAUS44 KMAF 262256
MTRGDP
METAR KGDP 262251Z AUTO VRB06KT 7SM -RA OVC095 22/17 A3023 RMK AO2
SLP164 P0000 T02170172





000
SAUS44 KMAF 262254
MTR6R6
METAR K6R6 262253Z AUTO 13011G17KT 38/10 A2996 RMK AO1 SLP101
T03830100





000
SAUS44 KMAF 262158 COR
MTRGDP
METAR KGDP 262151Z AUTO 04022KT 9SM -RA FEW050 SCT080 OVC100 23/15
A3021 RMK AO2 PK WND 08032/2105 RAB43 SLP151 P0000 T02330150





000
SAUS44 KMAF 262157
MTRGDP
METAR KGDP 262151Z AUTO 04022KT 9SM -RA FEW050 SCT080 OVC100 23/15
A3021 RMK AO2 PK WND 08032/2105 RAB43 SLP151 P0000 T02330150





000
SAUS44 KMAF 262157 COR
MTRGDP
METAR KGDP 262151Z AUTO 04022KT 9SM -RA FEW050 SCT080 OVC100 23/15
A3021 RMK AO2 PK WND 08032/2105 RAB43 SLP151 P0000 T02330150





000
SAUS44 KMAF 262154
MTR6R6
METAR K6R6 262153Z AUTO 13008G18KT 38/12 A2997 RMK AO1 SLP103
T03830117





000
SAUS44 KMAF 262058 COR
MTRGDP
METAR KGDP 262051Z AUTO 08023G28KT 9SM CLR 28/14 A3021 RMK AO2 PK
WND 09028/2043 WSHFT 1951 SLP143 T02780144 58018





000
SAUS44 KMAF 262057 COR
MTRGDP
METAR KGDP 262051Z AUTO 08023G28KT 9SM CLR 28/14 A3021 RMK AO2 PK
WND 09028/2043 WSHFT 1951 SLP143 T02780144 58018





000
SAUS44 KMAF 262056
MTRGDP
METAR KGDP 262051Z AUTO 08023G28KT 9SM CLR 28/14 A3021 RMK AO2 PK
WND 09028/2043 WSHFT 1951 SLP143 T02780144 58018





000
SAUS44 KMAF 262054
MTR6R6
METAR K6R6 262053Z AUTO 12015G21KT 38/13 A2999 RMK AO1 SLP111
T03830133 58020





000
SAUS44 KMAF 262018 COR
MTRGDP
SPECI KGDP 262011Z AUTO 11021G27KT 9SM FEW040 SCT048 BKN060 28/15
A3024 RMK AO2 PK WND 11027/2010 WSHFT 1951 T02780150





000
SAUS44 KMAF 262017 COR
MTRGDP
SPECI KGDP 262011Z AUTO 11021G27KT 9SM FEW040 SCT048 BKN060 28/15
A3024 RMK AO2 PK WND 11027/2010 WSHFT 1951 T02780150





000
SAUS44 KMAF 262016
MTRGDP
SPECI KGDP 262011Z AUTO 11021G27KT 9SM FEW040 SCT048 BKN060 28/15
A3024 RMK AO2 PK WND 11027/2010 WSHFT 1951 T02780150





    US Dept of Commerce
    National Oceanic and Atmospheric Administration
    National Weather Service
    1325 East West Highway
    Silver Spring, MD 20910
    Page Author: NWS Internet Services Team
Disclaimer
Information Quality
Credits
Glossary
Privacy Policy
Freedom of Information Act (FOIA)
About Us
Career Opportunities